createdAt,value
2019-02-12T00:00:51.024Z,2.00
2019-02-12T00:03:20.007Z,2.13
2019-02-12T00:05:48.785Z,2.20
2019-02-12T00:08:17.738Z,2.20
2019-02-12T00:10:46.680Z,2.13
2019-02-12T00:13:15.717Z,2.10
2019-02-12T00:15:44.643Z,2.07
2019-02-12T00:18:13.631Z,1.87
2019-02-12T00:20:42.437Z,2.37
2019-02-12T00:23:11.251Z,1.77
2019-02-12T00:25:40.085Z,1.53
2019-02-12T00:28:08.988Z,2.10
2019-02-12T00:30:37.970Z,2.07
2019-02-12T00:33:06.791Z,1.47
2019-02-12T00:35:35.667Z,2.10
2019-02-12T00:38:04.697Z,1.90
2019-02-12T00:40:33.586Z,1.57
2019-02-12T00:43:02.521Z,1.80
2019-02-12T00:45:31.325Z,1.80
2019-02-12T00:48:00.210Z,2.03
2019-02-12T00:50:30.250Z,1.63
2019-02-12T00:52:59.317Z,1.90
2019-02-12T00:55:28.164Z,1.27
2019-02-12T00:57:57.024Z,2.00
2019-02-12T01:00:25.921Z,1.73
2019-02-12T01:02:54.771Z,1.77
2019-02-12T01:05:23.846Z,2.00
2019-02-12T01:07:52.861Z,2.00
2019-02-12T01:10:21.960Z,1.40
2019-02-12T01:12:50.771Z,1.70
2019-02-12T01:15:19.806Z,1.73
2019-02-12T01:17:48.624Z,1.50
2019-02-12T01:20:17.501Z,1.40
2019-02-12T01:22:46.421Z,1.70
2019-02-12T01:25:15.306Z,2.00
2019-02-12T01:27:44.079Z,2.00
2019-02-12T01:30:16.807Z,1.90
2019-02-12T01:32:45.867Z,1.47
2019-02-12T01:35:14.741Z,2.10
2019-02-12T01:37:43.633Z,1.90
2019-02-12T01:40:13.625Z,1.73
2019-02-12T01:42:42.695Z,2.23
2019-02-12T01:45:12.983Z,1.90
2019-02-12T01:47:41.832Z,1.90
2019-02-12T01:50:13.022Z,2.37
2019-02-12T01:52:41.858Z,2.07
2019-02-12T01:55:10.875Z,1.50
2019-02-12T01:57:39.814Z,1.57
2019-02-12T02:00:12.195Z,1.87
2019-02-12T02:02:41.131Z,1.70
2019-02-12T02:05:10.447Z,2.30
2019-02-12T02:07:39.326Z,2.10
2019-02-12T02:10:14.058Z,1.98
2019-02-12T02:12:42.934Z,1.93
2019-02-12T02:15:12.855Z,1.70
2019-02-12T02:17:41.751Z,2.17
2019-02-12T02:20:11.013Z,1.60
2019-02-12T02:22:39.862Z,1.93
2019-02-12T02:25:10.242Z,1.90
2019-02-12T02:27:39.198Z,2.10
2019-02-12T02:30:09.718Z,2.40
2019-02-12T02:32:38.632Z,2.40
2019-02-12T02:35:08.113Z,1.80
2019-02-12T02:37:37.068Z,2.00
2019-02-12T02:40:06.877Z,2.10
2019-02-12T02:42:35.676Z,1.93
2019-02-12T02:45:05.344Z,1.63
2019-02-12T02:47:34.251Z,2.03
2019-02-12T02:50:03.519Z,2.23
2019-02-12T02:52:32.442Z,2.13
2019-02-12T02:55:01.285Z,1.67
2019-02-12T02:57:30.259Z,1.97
2019-02-12T02:59:59.250Z,2.43
2019-02-12T03:02:28.234Z,1.77
2019-02-12T03:04:57.174Z,2.20
2019-02-12T03:07:26.048Z,2.30
2019-02-12T03:09:54.999Z,2.20
2019-02-12T03:12:23.924Z,1.90
2019-02-12T03:14:52.888Z,1.90
2019-02-12T03:17:21.761Z,2.40
2019-02-12T03:19:50.778Z,1.93
2019-02-12T03:22:19.640Z,2.47
2019-02-12T03:24:48.471Z,2.43
2019-02-12T03:27:17.409Z,2.60
2019-02-12T03:29:46.373Z,3.17
2019-02-12T03:32:15.177Z,3.27
2019-02-12T03:34:44.188Z,2.67
2019-02-12T03:37:13.061Z,3.00
2019-02-12T03:39:41.863Z,2.20
2019-02-12T03:42:10.698Z,2.30
2019-02-12T03:44:39.596Z,2.60
2019-02-12T03:47:08.543Z,2.37
2019-02-12T03:49:37.447Z,2.53
2019-02-12T03:52:12.732Z,2.67
2019-02-12T03:54:37.510Z,2.20
2019-02-12T03:57:06.639Z,2.37
2019-02-12T03:59:35.779Z,2.53
2019-02-12T04:02:04.909Z,2.17
2019-02-12T04:04:34.008Z,2.87
2019-02-12T04:07:02.885Z,1.93
2019-02-12T04:09:31.866Z,2.43
2019-02-12T04:12:00.758Z,2.90
2019-02-12T04:14:29.841Z,2.20
2019-02-12T04:16:58.692Z,2.13
2019-02-12T04:19:27.700Z,2.00
2019-02-12T04:21:56.577Z,2.27
2019-02-12T04:24:25.522Z,2.50
2019-02-12T04:26:54.460Z,1.90
2019-02-12T04:29:23.372Z,2.20
2019-02-12T04:31:52.218Z,2.00
2019-02-12T04:34:21.059Z,2.10
2019-02-12T04:36:49.904Z,2.03
2019-02-12T04:39:18.884Z,2.40
2019-02-12T04:41:48.815Z,2.30
2019-02-12T04:44:17.806Z,2.13
2019-02-12T04:46:46.787Z,2.40
2019-02-12T04:49:15.801Z,2.20
2019-02-12T04:51:44.590Z,2.70
2019-02-12T04:54:13.485Z,2.13
2019-02-12T04:56:42.417Z,2.10
2019-02-12T04:59:11.274Z,2.10
2019-02-12T05:01:40.178Z,2.10
2019-02-12T05:04:09.134Z,2.10
2019-02-12T05:06:38.036Z,2.23
2019-02-12T05:09:21.264Z,1.60
2019-02-12T05:11:55.364Z,1.93
2019-02-12T05:14:24.475Z,1.73
2019-02-12T05:16:53.378Z,2.37
2019-02-12T05:19:22.266Z,1.87
2019-02-12T05:21:51.121Z,1.83
2019-02-12T05:24:19.952Z,1.90
2019-02-12T05:26:48.941Z,2.03
2019-02-12T05:29:18.458Z,2.13
2019-02-12T05:31:47.429Z,2.07
2019-02-12T05:34:16.425Z,1.70
2019-02-12T05:36:45.425Z,2.10
2019-02-12T05:39:14.411Z,2.40
2019-02-12T05:41:43.320Z,2.00
2019-02-12T05:44:12.163Z,1.70
2019-02-12T05:46:41.090Z,1.90
2019-02-12T05:49:09.937Z,1.47
2019-02-12T05:51:38.744Z,1.70
2019-02-12T05:54:07.531Z,4.63
2019-02-12T05:56:36.346Z,2.17
2019-02-12T05:59:05.388Z,2.43
2019-02-12T06:01:34.177Z,2.30
2019-02-12T06:04:02.998Z,2.23
2019-02-12T06:06:31.913Z,2.87
2019-02-12T06:09:01.163Z,2.13
2019-02-12T06:11:29.988Z,2.13
2019-02-12T06:13:58.777Z,2.57
2019-02-12T06:16:27.621Z,2.23
2019-02-12T06:18:56.661Z,1.90
2019-02-12T06:21:25.417Z,2.07
2019-02-12T06:23:54.205Z,1.80
2019-02-12T06:26:23.015Z,2.70
2019-02-12T06:28:51.970Z,2.20
2019-02-12T06:31:20.811Z,2.20
2019-02-12T06:33:49.579Z,2.47
2019-02-12T06:36:18.481Z,2.37
2019-02-12T06:38:47.315Z,2.30
2019-02-12T06:41:16.133Z,1.97
2019-02-12T06:43:44.881Z,2.57
2019-02-12T06:46:14.011Z,2.30
2019-02-12T06:48:42.924Z,2.00
2019-02-12T06:51:11.698Z,1.90
2019-02-12T06:53:40.523Z,2.40
2019-02-12T06:56:09.382Z,2.47
2019-02-12T06:58:38.250Z,2.30
2019-02-12T07:01:07.071Z,1.90
2019-02-12T07:04:06.072Z,2.20
2019-02-12T07:07:15.946Z,2.43
2019-02-12T07:09:56.909Z,2.10
2019-02-12T07:12:36.909Z,2.50
2019-02-12T07:15:22.660Z,2.37
2019-02-12T07:18:20.423Z,2.73
2019-02-12T07:21:24.184Z,2.40
2019-02-12T07:24:23.436Z,2.57
2019-02-12T07:27:28.891Z,2.27
2019-02-12T07:30:38.873Z,2.20
2019-02-12T07:33:26.751Z,1.70
2019-02-12T07:36:25.807Z,2.23
2019-02-12T07:39:18.231Z,2.80
2019-02-12T07:42:44.625Z,2.30
2019-02-12T07:45:49.188Z,1.90
2019-02-12T07:48:36.874Z,2.23
2019-02-12T07:51:26.050Z,2.30
2019-02-12T07:54:20.347Z,2.20
2019-02-12T07:57:36.978Z,2.70
2019-02-12T08:00:30.903Z,2.67
2019-02-12T08:03:53.698Z,2.30
2019-02-12T08:06:51.580Z,2.30
2019-02-12T08:10:20.822Z,2.10
2019-02-12T08:13:28.201Z,2.50
2019-02-12T08:16:10.339Z,2.63
2019-02-12T08:18:52.699Z,2.40
2019-02-12T08:21:53.389Z,2.60
2019-02-12T08:24:51.967Z,2.90
2019-02-12T08:27:59.086Z,2.77
2019-02-12T08:30:39.866Z,2.60
2019-02-12T08:33:54.438Z,2.10
2019-02-12T08:36:46.749Z,2.37
2019-02-12T08:39:24.919Z,2.77
2019-02-12T08:42:47.330Z,2.30
2019-02-12T08:45:41.370Z,2.27
2019-02-12T08:48:55.224Z,2.60
2019-02-12T08:51:35.034Z,2.63
2019-02-12T08:54:40.911Z,2.73
2019-02-12T08:57:43.995Z,2.50
2019-02-12T09:00:28.944Z,3.00
2019-02-12T09:03:44.191Z,2.87
2019-02-12T09:06:52.259Z,2.67
2019-02-12T09:10:08.638Z,3.40
2019-02-12T09:13:15.611Z,2.67
2019-02-12T09:16:19.319Z,2.90
2019-02-12T09:19:15.686Z,2.37
2019-02-12T09:22:16.005Z,3.17
2019-02-12T09:25:13.653Z,3.00
2019-02-12T09:27:50.556Z,3.07
2019-02-12T09:31:01.020Z,2.67
2019-02-12T09:34:02.928Z,3.10
2019-02-12T09:37:16.065Z,3.47
2019-02-12T09:40:23.099Z,2.77
2019-02-12T09:43:06.301Z,3.37
2019-02-12T09:46:09.834Z,3.20
2019-02-12T09:48:45.397Z,3.50
2019-02-12T09:51:36.071Z,3.57
2019-02-12T09:54:40.065Z,3.00
2019-02-12T09:57:42.528Z,3.50
2019-02-12T10:00:29.186Z,3.33
2019-02-12T10:03:34.225Z,3.40
2019-02-12T10:06:09.851Z,3.23
2019-02-12T10:09:10.688Z,3.40
2019-02-12T10:11:55.785Z,4.07
2019-02-12T10:14:41.773Z,3.90
2019-02-12T10:17:36.150Z,4.40
2019-02-12T10:20:28.246Z,3.83
2019-02-12T10:23:39.851Z,4.33
2019-02-12T10:26:11.274Z,3.70
2019-02-12T10:29:14.706Z,4.17
2019-02-12T10:31:45.866Z,4.50
2019-02-12T10:34:14.637Z,4.37
2019-02-12T10:36:43.575Z,4.27
2019-02-12T10:39:16.458Z,4.80
2019-02-12T10:41:45.328Z,4.53
2019-02-12T10:44:14.222Z,4.73
2019-02-12T10:46:43.043Z,4.47
2019-02-12T10:49:12.109Z,4.73
2019-02-12T10:51:40.922Z,5.27
2019-02-12T10:54:12.154Z,4.50
2019-02-12T10:56:40.677Z,4.77
2019-02-12T10:59:10.618Z,5.00
2019-02-12T11:01:39.509Z,4.87
2019-02-12T11:04:08.337Z,4.93
2019-02-12T11:06:37.157Z,4.40
2019-02-12T11:09:06.162Z,4.30
2019-02-12T11:11:34.923Z,4.40
2019-02-12T11:14:03.834Z,4.57
2019-02-12T11:16:32.682Z,4.47
2019-02-12T11:19:01.697Z,5.07
2019-02-12T11:21:30.452Z,4.90
2019-02-12T11:23:59.241Z,5.33
2019-02-12T11:26:28.058Z,4.23
2019-02-12T11:28:56.946Z,4.67
2019-02-12T11:31:25.748Z,5.20
2019-02-12T11:33:54.507Z,4.23
2019-02-12T11:36:23.596Z,4.70
2019-02-12T11:38:52.610Z,4.27
2019-02-12T11:41:21.398Z,4.30
2019-02-12T11:43:50.171Z,4.77
2019-02-12T11:46:18.999Z,4.40
2019-02-12T11:48:48.931Z,5.67
2019-02-12T11:51:17.746Z,4.67
2019-02-12T11:53:46.535Z,4.40
2019-02-12T11:56:15.365Z,4.40
2019-02-12T11:58:44.395Z,4.10
2019-02-12T12:01:17.723Z,4.47
2019-02-12T12:03:46.614Z,4.87
2019-02-12T12:06:15.459Z,5.00
2019-02-12T12:08:44.463Z,5.70
2019-02-12T12:11:13.309Z,4.97
2019-02-12T12:13:42.117Z,4.83
2019-02-12T12:16:11.259Z,4.40
2019-02-12T12:18:40.550Z,5.03
2019-02-12T12:21:09.449Z,4.70
2019-02-12T12:23:38.246Z,4.77
2019-02-12T12:26:07.138Z,5.27
2019-02-12T12:28:35.948Z,4.97
2019-02-12T12:31:04.911Z,4.97
2019-02-12T12:33:33.707Z,4.90
2019-02-12T12:36:02.466Z,4.00
2019-02-12T12:38:31.506Z,2.70
2019-02-12T12:41:00.398Z,2.00
2019-02-12T12:43:29.860Z,2.00
2019-02-12T12:45:59.036Z,1.60
2019-02-12T12:48:27.859Z,1.67
2019-02-12T12:50:56.621Z,1.60
2019-02-12T12:53:25.452Z,2.00
2019-02-12T12:55:54.371Z,1.83
2019-02-12T12:58:23.206Z,1.80
2019-02-12T13:00:52.097Z,1.70
2019-02-12T13:03:20.875Z,1.60
2019-02-12T13:05:49.703Z,1.80
2019-02-12T13:08:18.499Z,1.80
2019-02-12T13:10:47.263Z,1.77
2019-02-12T13:13:16.966Z,1.80
2019-02-12T13:15:45.944Z,1.83
2019-02-12T13:18:14.762Z,1.87
2019-02-12T13:20:43.567Z,1.67
2019-02-12T13:23:12.336Z,1.90
2019-02-12T13:25:41.179Z,1.83
2019-02-12T13:28:10.647Z,1.80
2019-02-12T13:30:39.454Z,1.90
2019-02-12T13:33:08.177Z,1.87
2019-02-12T13:35:37.092Z,1.70
2019-02-12T13:38:05.855Z,2.00
2019-02-12T13:40:34.672Z,2.05
2019-02-12T13:43:03.510Z,2.20
2019-02-12T13:45:32.323Z,1.60
2019-02-12T13:48:01.095Z,2.00
2019-02-12T13:50:30.160Z,2.10
2019-02-12T13:52:58.948Z,3.17
2019-02-12T13:55:27.729Z,1.90
2019-02-12T13:57:56.487Z,1.80
2019-02-12T14:00:25.467Z,1.83
2019-02-12T14:02:54.342Z,2.17
2019-02-12T14:05:23.229Z,2.00
2019-02-12T14:07:52.266Z,1.70
2019-02-12T14:10:21.243Z,1.80
2019-02-12T14:12:50.082Z,1.77
2019-02-12T14:15:18.903Z,1.77
2019-02-12T14:17:47.659Z,1.77
2019-02-12T14:20:16.612Z,1.80
2019-02-12T14:22:45.437Z,1.33
2019-02-12T14:25:14.621Z,1.90
2019-02-12T14:27:43.714Z,1.20
2019-02-12T14:30:13.411Z,1.60
2019-02-12T14:32:42.258Z,1.97
2019-02-12T14:35:11.785Z,2.17
2019-02-12T14:37:40.539Z,1.87
2019-02-12T14:40:10.657Z,1.77
2019-02-12T14:42:39.520Z,1.67
2019-02-12T14:45:11.426Z,1.70
2019-02-12T14:47:40.281Z,1.77
2019-02-12T14:50:11.139Z,2.00
2019-02-12T14:52:39.943Z,1.83
2019-02-12T14:55:09.833Z,1.80
2019-02-12T14:57:38.651Z,1.97
2019-02-12T15:00:10.287Z,1.83
2019-02-12T15:02:39.190Z,1.50
2019-02-12T15:05:09.268Z,1.85
2019-02-12T15:07:38.098Z,1.60
2019-02-12T15:10:08.541Z,1.87
2019-02-12T15:12:39.443Z,1.83
2019-02-12T15:15:09.850Z,1.80
2019-02-12T15:17:38.693Z,1.87
2019-02-12T15:20:08.774Z,2.03
2019-02-12T15:22:37.785Z,2.00
2019-02-12T15:25:07.145Z,2.07
2019-02-12T15:27:36.059Z,2.20
2019-02-12T15:30:06.872Z,2.07
2019-02-12T15:32:35.669Z,2.20
2019-02-12T15:35:05.179Z,1.90
2019-02-12T15:37:33.992Z,2.00
2019-02-12T15:40:03.140Z,2.33
2019-02-12T15:42:32.940Z,1.70
2019-02-12T15:45:01.806Z,1.30
2019-02-12T15:47:30.661Z,1.70
2019-02-12T15:49:59.554Z,1.60
2019-02-12T15:52:28.420Z,1.70
2019-02-12T15:54:57.259Z,1.97
2019-02-12T15:57:27.139Z,1.80
2019-02-12T15:59:56.351Z,1.47
2019-02-12T16:02:25.214Z,1.77
2019-02-12T16:04:54.005Z,1.73
2019-02-12T16:07:24.345Z,2.10
2019-02-12T16:09:55.029Z,2.20
2019-02-12T16:12:26.487Z,1.80
2019-02-12T16:14:57.209Z,2.00
2019-02-12T16:17:26.104Z,1.70
2019-02-12T16:19:54.971Z,2.00
2019-02-12T16:22:23.748Z,1.90
2019-02-12T16:24:52.512Z,2.33
2019-02-12T16:27:21.326Z,2.23
2019-02-12T16:29:50.156Z,2.40
2019-02-12T16:32:18.987Z,2.57
2019-02-12T16:34:47.805Z,2.67
2019-02-12T16:37:16.547Z,2.43
2019-02-12T16:39:46.109Z,3.03
2019-02-12T16:42:14.957Z,2.40
2019-02-12T16:44:43.752Z,2.43
2019-02-12T16:47:12.566Z,2.93
2019-02-12T16:49:41.498Z,2.77
2019-02-12T16:52:10.314Z,2.90
2019-02-12T16:54:39.096Z,2.87
2019-02-12T16:57:07.996Z,3.30
2019-02-12T16:59:36.843Z,3.23
2019-02-12T17:02:05.719Z,3.33
2019-02-12T17:04:34.545Z,3.20
2019-02-12T17:07:03.424Z,2.73
2019-02-12T17:09:34.376Z,3.30
2019-02-12T17:12:03.187Z,3.30
2019-02-12T17:14:31.955Z,3.40
2019-02-12T17:17:00.762Z,3.47
2019-02-12T17:19:29.634Z,2.97
2019-02-12T17:21:58.425Z,3.67
2019-02-12T17:24:27.176Z,3.07
2019-02-12T17:26:56.140Z,3.03
2019-02-12T17:29:25.079Z,3.30
2019-02-12T17:31:53.886Z,4.03
2019-02-12T17:34:22.666Z,3.20
2019-02-12T17:36:51.502Z,3.50
2019-02-12T17:39:20.319Z,3.33
2019-02-12T17:41:49.121Z,3.50
2019-02-12T17:44:17.909Z,3.50
2019-02-12T17:46:46.702Z,3.90
2019-02-12T17:49:15.709Z,3.83
2019-02-12T17:51:44.513Z,3.55
2019-02-12T17:54:13.305Z,3.67
2019-02-12T17:56:42.193Z,3.60
2019-02-12T17:59:11.028Z,3.63
2019-02-12T18:01:39.784Z,3.53
2019-02-12T18:04:08.644Z,3.73
2019-02-12T18:06:37.504Z,3.40
2019-02-12T18:09:07.725Z,3.37
2019-02-12T18:11:36.626Z,3.47
2019-02-12T18:14:05.534Z,4.10
2019-02-12T18:16:34.301Z,3.90
2019-02-12T18:19:03.767Z,4.20
2019-02-12T18:21:32.576Z,4.03
2019-02-12T18:24:01.496Z,3.97
2019-02-12T18:26:33.381Z,4.43
2019-02-12T18:29:01.029Z,4.87
2019-02-12T18:31:29.889Z,4.87
2019-02-12T18:33:58.713Z,4.67
2019-02-12T18:36:27.504Z,4.40
2019-02-12T18:38:56.410Z,5.47
2019-02-12T18:41:25.248Z,5.00
2019-02-12T18:43:54.032Z,4.40
2019-02-12T18:46:22.905Z,4.60
2019-02-12T18:48:52.013Z,4.87
2019-02-12T18:51:20.834Z,4.20
2019-02-12T18:53:49.643Z,4.37
2019-02-12T18:56:18.463Z,4.37
2019-02-12T18:58:47.493Z,4.87
2019-02-12T19:01:16.296Z,6.90
2019-02-12T19:03:45.138Z,4.13
2019-02-12T19:06:13.942Z,4.42
2019-02-12T19:08:42.822Z,5.97
2019-02-12T19:11:11.617Z,4.03
2019-02-12T19:13:40.401Z,4.63
2019-02-12T19:16:09.203Z,4.10
2019-02-12T19:18:38.176Z,6.57
2019-02-12T19:21:07.097Z,4.10
2019-02-12T19:23:35.889Z,4.23
2019-02-12T19:26:04.959Z,3.77
2019-02-12T19:28:33.924Z,3.47
2019-02-12T19:31:02.727Z,3.43
2019-02-12T19:33:31.492Z,3.70
2019-02-12T19:36:00.334Z,4.07
2019-02-12T19:38:29.260Z,3.57
2019-02-12T19:40:58.094Z,3.80
2019-02-12T19:43:26.927Z,4.27
2019-02-12T19:45:55.775Z,3.60
2019-02-12T19:48:24.647Z,3.70
2019-02-12T19:50:53.439Z,3.60
2019-02-12T19:53:22.230Z,3.63
2019-02-12T19:55:51.123Z,3.53
2019-02-12T19:58:19.939Z,3.80
2019-02-12T20:00:48.741Z,4.10
2019-02-12T20:03:17.515Z,3.60
2019-02-12T20:05:46.327Z,3.77
2019-02-12T20:08:15.139Z,3.93
2019-02-12T20:10:44.038Z,3.57
2019-02-12T20:13:12.819Z,4.20
2019-02-12T20:15:41.601Z,3.60
2019-02-12T20:18:10.441Z,4.07
2019-02-12T20:20:39.403Z,3.57
2019-02-12T20:23:08.227Z,3.63
2019-02-12T20:25:37.182Z,4.13
2019-02-12T20:28:06.006Z,3.37
2019-02-12T20:30:35.063Z,3.43
2019-02-12T20:33:03.979Z,3.50
2019-02-12T20:35:36.439Z,3.40
2019-02-12T20:38:03.349Z,3.83
2019-02-12T20:40:32.109Z,3.10
2019-02-12T20:43:00.927Z,3.10
2019-02-12T20:45:29.719Z,2.97
2019-02-12T20:47:59.375Z,3.10
2019-02-12T20:50:28.374Z,3.23
2019-02-12T20:52:57.241Z,3.50
2019-02-12T20:55:26.007Z,3.17
2019-02-12T20:57:54.811Z,3.03
2019-02-12T21:00:24.816Z,3.20
2019-02-12T21:02:53.718Z,3.10
2019-02-12T21:05:22.593Z,3.33
2019-02-12T21:07:51.419Z,2.80
2019-02-12T21:10:20.325Z,3.30
2019-02-12T21:12:49.264Z,3.10
2019-02-12T21:15:19.431Z,2.97
2019-02-12T21:17:48.283Z,3.17
2019-02-12T21:20:17.359Z,2.80
2019-02-12T21:22:46.177Z,3.10
2019-02-12T21:25:15.029Z,2.80
2019-02-12T21:27:43.875Z,3.03
2019-02-12T21:30:15.381Z,2.97
2019-02-12T21:32:44.109Z,2.90
2019-02-12T21:35:13.382Z,3.50
2019-02-12T21:37:42.174Z,3.30
2019-02-12T21:40:13.777Z,4.10
2019-02-12T21:42:42.640Z,3.50
2019-02-12T21:45:12.800Z,2.80
2019-02-12T21:47:42.020Z,2.93
2019-02-12T21:50:12.075Z,2.67
2019-02-12T21:52:40.998Z,2.93
2019-02-12T21:55:10.083Z,2.73
2019-02-12T21:57:39.043Z,3.40
2019-02-12T22:00:11.446Z,3.50
2019-02-12T22:02:40.285Z,2.80
2019-02-12T22:05:10.749Z,2.85
2019-02-12T22:07:39.744Z,3.00
2019-02-12T22:10:11.933Z,3.08
2019-02-12T22:12:40.731Z,3.10
2019-02-12T22:15:11.585Z,3.00
2019-02-12T22:17:41.179Z,2.90
2019-02-12T22:20:11.870Z,2.73
2019-02-12T22:22:40.821Z,2.87
2019-02-12T22:25:10.887Z,3.47
2019-02-12T22:27:40.696Z,3.40
2019-02-12T22:30:13.032Z,3.00
2019-02-12T22:32:42.055Z,3.30
2019-02-12T22:35:10.986Z,3.50
2019-02-12T22:37:40.110Z,3.83
2019-02-12T22:40:10.713Z,3.60
2019-02-12T22:42:39.747Z,3.60
2019-02-12T22:45:11.847Z,3.72
2019-02-12T22:47:40.724Z,4.37
2019-02-12T22:50:10.594Z,4.30
2019-02-12T22:52:39.430Z,4.97
2019-02-12T22:55:09.035Z,4.67
2019-02-12T22:57:37.906Z,4.50
2019-02-12T23:00:14.184Z,4.53
2019-02-12T23:02:43.145Z,4.70
2019-02-12T23:05:12.079Z,4.73
2019-02-12T23:07:40.926Z,5.07
2019-02-12T23:10:10.106Z,5.43
2019-02-12T23:12:38.968Z,5.20
2019-02-12T23:15:08.644Z,5.62
2019-02-12T23:17:37.509Z,5.80
2019-02-12T23:20:06.766Z,5.20
2019-02-12T23:22:35.721Z,5.30
2019-02-12T23:25:04.874Z,5.43
2019-02-12T23:27:33.702Z,5.30
2019-02-12T23:30:02.555Z,5.80
2019-02-12T23:32:32.985Z,5.10
2019-02-12T23:35:02.722Z,5.43
2019-02-12T23:37:31.564Z,5.67
2019-02-12T23:40:00.408Z,5.90
2019-02-12T23:42:29.250Z,5.73
2019-02-12T23:44:58.050Z,6.50
2019-02-12T23:47:26.948Z,5.80
2019-02-12T23:49:55.980Z,5.93
2019-02-12T23:52:24.910Z,5.93
2019-02-12T23:54:53.773Z,6.13
2019-02-12T23:57:22.633Z,5.60
2019-02-12T23:59:51.501Z,5.83
